Decoded Metar for PACV (CORDOVA in AK, USA) (IATA:CDV) | Meteo·Mobile Aviation Weather
aviador You're here:

PACV Decoded Metar

CORDOVA in AK, USA
Report Time2018-08-20 17:53:00
UTC Time2018-08-20 18:42:54
Flight Rules vfr VFR
Wind110° at 04 kt
W.Decomp.*RWY 09: 4.0 kt HW 0.1 kt RCW
RWY 16: 1.4 kt HW 3.7 kt LCW
W.Rank110° ranks 1
Current wind is below 110° avg. (8.2)
Visibility9999 m
Phenomena:N/A
Clouds:Few 014 Hf
Overcast 030 Hf
Expected CloudBase > 800 ft AGL from Temp-Dew spread
Ceiling3,000 ft
Temp15°C (ISA 0)
Dew Point13°C (88% RH)
AAT14.5°C
QNH1023 hPa
Density Alt-89 ft
Elevation39 ft
Report Wrong Elevation
Raw Report
PACV 201753Z 11004KT 10SM FEW014 OVC030 15/13 A3020 RMK AO2
RAB08E40 SLP225 P0000 60000 T01500128 10150 20133 58012=

Extra information for PACV:More info

Metar Taf Metar & Taf Last 4 Metars F.Rules Stats Wind Profile Meteogram Temp Stats Airport Information Weather charts Add Link Nearby VenuesMetar ALERT Operation Metar Decoded Social comments

AIRNAV info for PACV